Hays, Montana
Current Conditions -  °F | °C
As of 2:53 PM on Saturday 20 Dec 2014 (Local Time) from KHVR Reporting Station
Clear Clear  
Wind Chill: 37°   Ceiling: Unl
Heat Index: 42°   Visibility: 10mi
Dew Point: 27°   Wind: 9mph
Humidity: 55%   Direction: 220°SW
Pressure: 29.74"   Gusts: NA
Location:  47.99°N, 108.7°W
Report Text: KHVR 202153Z AUTO 22008KT 10SM CLR 06/M03 A2974 RMK AO2 SLP088 T00561028
Loading
Personal Weather Stations






























Interactive Weather Map New forecast layout! Learn more

10-Day Weather Forecast

Advertisements
Track Severe Weather on mobile